createdAt,value
2022-09-20T00:00:37.794Z,9.5
2022-09-20T00:01:38.436Z,9.4
2022-09-20T00:02:38.983Z,9.4
2022-09-20T00:03:39.576Z,9.4
2022-09-20T00:04:40.223Z,9.4
2022-09-20T00:05:40.765Z,9.4
2022-09-20T00:06:41.355Z,9.4
2022-09-20T00:07:41.949Z,9.4
2022-09-20T00:08:42.541Z,9.4
2022-09-20T00:09:43.149Z,9.4
2022-09-20T00:10:43.781Z,9.5
2022-09-20T00:11:44.359Z,9.4
2022-09-20T00:12:44.949Z,9.4
2022-09-20T00:13:45.543Z,9.4
2022-09-20T00:14:46.135Z,9.4
2022-09-20T00:15:46.728Z,9.3
2022-09-20T00:16:47.383Z,9.4
2022-09-20T00:17:47.929Z,9.3
2022-09-20T00:18:48.522Z,9.3
2022-09-20T00:19:49.115Z,9.2
2022-09-20T00:20:49.707Z,9.4
2022-09-20T00:21:50.310Z,9.3
2022-09-20T00:22:50.897Z,9.3
2022-09-20T00:23:51.493Z,9.3
2022-09-20T00:24:52.085Z,9.4
2022-09-20T00:25:52.680Z,9.4
2022-09-20T00:26:53.274Z,9.4
2022-09-20T00:27:53.869Z,9.4
2022-09-20T00:28:54.464Z,9.4
2022-09-20T00:29:55.057Z,9.3
2022-09-20T00:30:55.650Z,9.3
2022-09-20T00:31:56.297Z,9.3
2022-09-20T00:32:56.839Z,9.2
2022-09-20T00:33:57.438Z,9.3
2022-09-20T00:34:58.036Z,9.3
2022-09-20T00:35:58.644Z,9.3
2022-09-20T00:36:59.237Z,9.4
2022-09-20T00:37:59.834Z,9.3
2022-09-20T00:39:00.424Z,9.2
2022-09-20T00:40:01.051Z,9.2
2022-09-20T00:41:01.612Z,9.2
2022-09-20T00:42:02.213Z,9.2
2022-09-20T00:43:02.802Z,9.2
2022-09-20T00:44:03.397Z,9.3
2022-09-20T00:45:03.989Z,9.2
2022-09-20T00:46:04.639Z,9.2
2022-09-20T00:47:05.270Z,9.2
2022-09-20T00:48:05.819Z,9.2
2022-09-20T00:49:06.521Z,9.2
2022-09-20T00:50:07.082Z,9.2
2022-09-20T00:51:07.674Z,9.1
2022-09-20T00:52:08.271Z,9.3
2022-09-20T00:53:08.864Z,9.2
2022-09-20T00:54:09.458Z,9.2
2022-09-20T00:55:10.050Z,9.2
2022-09-20T00:56:10.647Z,9.4
2022-09-20T00:57:11.236Z,9.2
2022-09-20T00:58:11.831Z,9.4
2022-09-20T00:59:12.422Z,9.4
2022-09-20T01:00:13.036Z,9.4
2022-09-20T01:01:13.654Z,9.4
2022-09-20T01:02:14.265Z,9.4
2022-09-20T01:03:14.823Z,9.4
2022-09-20T01:04:15.423Z,9.4
2022-09-20T01:05:16.006Z,9.4
2022-09-20T01:06:16.600Z,9.4
2022-09-20T01:07:17.192Z,9.5
2022-09-20T01:08:17.786Z,9.5
2022-09-20T01:09:18.379Z,9.5
2022-09-20T01:10:18.974Z,9.5
2022-09-20T01:11:19.574Z,9.5
2022-09-20T01:12:20.186Z,9.6
2022-09-20T01:13:20.779Z,9.5
2022-09-20T01:14:21.372Z,9.4
2022-09-20T01:15:21.967Z,9.4
2022-09-20T01:16:22.611Z,9.5
2022-09-20T01:17:23.156Z,9.4
2022-09-20T01:18:23.746Z,9.5
2022-09-20T01:19:24.341Z,9.5
2022-09-20T01:20:24.931Z,9.4
2022-09-20T01:21:25.526Z,9.4
2022-09-20T01:22:26.118Z,9.4
2022-09-20T01:23:26.732Z,9.4
2022-09-20T01:24:27.324Z,9.4
2022-09-20T01:25:27.919Z,9.4
2022-09-20T01:26:28.512Z,9.3
2022-09-20T01:27:29.106Z,9.4
2022-09-20T01:28:29.698Z,9.4
2022-09-20T01:29:30.293Z,9.3
2022-09-20T01:30:30.886Z,9.3
2022-09-20T01:31:31.546Z,9.4
2022-09-20T01:32:32.115Z,9.3
2022-09-20T01:33:32.711Z,9.3
2022-09-20T01:34:33.304Z,9.5
2022-09-20T01:35:33.898Z,9.4
2022-09-20T01:36:34.490Z,9.4
2022-09-20T01:37:35.083Z,9.4
2022-09-20T01:38:35.680Z,9.3
2022-09-20T01:39:36.267Z,9.4
2022-09-20T01:40:36.903Z,9.4
2022-09-20T01:41:37.504Z,9.4
2022-09-20T01:42:38.094Z,9.4
2022-09-20T01:43:38.688Z,9.4
2022-09-20T01:44:39.282Z,9.4
2022-09-20T01:45:39.903Z,9.4
2022-09-20T01:46:40.481Z,9.4
2022-09-20T01:47:41.078Z,9.4
2022-09-20T01:48:41.673Z,9.5
2022-09-20T01:49:42.264Z,9.4
2022-09-20T01:50:42.857Z,9.4
2022-09-20T01:51:43.451Z,9.4
2022-09-20T01:52:44.043Z,9.4
2022-09-20T01:53:44.657Z,9.5
2022-09-20T01:54:45.250Z,9.4
2022-09-20T01:55:45.845Z,9.5
2022-09-20T01:56:46.437Z,9.4
2022-09-20T01:57:47.032Z,9.4
2022-09-20T01:58:57.419Z,9.4
2022-09-20T01:59:49.212Z,9.5
2022-09-20T02:00:49.869Z,9.4
2022-09-20T02:01:50.413Z,9.4
2022-09-20T02:02:51.172Z,9.4
2022-09-20T02:03:51.617Z,9.4
2022-09-20T02:04:52.230Z,9.4
2022-09-20T02:05:52.822Z,9.4
2022-09-20T02:06:53.417Z,9.4
2022-09-20T02:07:54.029Z,9.5
2022-09-20T02:08:54.623Z,9.5
2022-09-20T02:09:55.214Z,9.5
2022-09-20T02:10:55.809Z,9.5
2022-09-20T02:11:56.403Z,9.5
2022-09-20T02:12:56.999Z,9.5
2022-09-20T02:13:57.592Z,9.5
2022-09-20T02:14:58.188Z,9.6
2022-09-20T02:15:58.780Z,9.5
2022-09-20T02:16:59.413Z,9.5
2022-09-20T02:17:59.984Z,9.5
2022-09-20T02:19:00.569Z,9.5
2022-09-20T02:20:01.163Z,9.6
2022-09-20T02:21:01.757Z,9.5
2022-09-20T02:22:02.352Z,9.6
2022-09-20T02:23:02.995Z,9.5
2022-09-20T02:24:03.544Z,9.5
2022-09-20T02:25:04.138Z,9.5
2022-09-20T02:26:04.733Z,9.5
2022-09-20T02:27:05.327Z,9.6
2022-09-20T02:28:05.923Z,9.5
2022-09-20T02:29:06.600Z,9.5
2022-09-20T02:30:07.239Z,9.5
2022-09-20T02:31:07.832Z,9.5
2022-09-20T02:32:08.473Z,9.5
2022-09-20T02:33:09.026Z,9.5
2022-09-20T02:34:09.622Z,9.4
2022-09-20T02:35:10.216Z,9.4
2022-09-20T02:36:10.810Z,9.5
2022-09-20T02:37:11.404Z,9.5
2022-09-20T02:38:11.997Z,9.5
2022-09-20T02:39:12.590Z,9.5
2022-09-20T02:40:13.243Z,9.5
2022-09-20T02:41:13.798Z,9.5
2022-09-20T02:42:14.392Z,9.5
2022-09-20T02:43:14.986Z,9.4
2022-09-20T02:44:15.579Z,9.5
2022-09-20T02:45:16.172Z,9.4
2022-09-20T02:46:16.817Z,9.5
2022-09-20T02:47:17.380Z,9.5
2022-09-20T02:48:17.973Z,9.6
2022-09-20T02:49:18.586Z,9.5
2022-09-20T02:50:19.181Z,9.5
2022-09-20T02:51:19.774Z,9.5
2022-09-20T02:52:20.368Z,9.4
2022-09-20T02:53:20.961Z,9.4
2022-09-20T02:54:21.554Z,9.5
2022-09-20T02:55:22.148Z,9.4
2022-09-20T02:56:22.740Z,9.4
2022-09-20T02:57:23.333Z,9.4
2022-09-20T02:58:23.925Z,9.4
2022-09-20T02:59:24.520Z,9.4
2022-09-20T03:00:25.117Z,9.4
2022-09-20T03:01:25.785Z,9.5
2022-09-20T03:02:26.466Z,9.4
2022-09-20T03:03:27.032Z,9.4
2022-09-20T03:04:27.625Z,9.5
2022-09-20T03:05:28.217Z,9.5
2022-09-20T03:06:28.813Z,9.5
2022-09-20T03:07:29.405Z,9.4
2022-09-20T03:08:29.999Z,9.6
2022-09-20T03:09:30.590Z,9.6
2022-09-20T03:10:31.190Z,9.5
2022-09-20T03:11:31.798Z,9.6
2022-09-20T03:12:32.396Z,9.5
2022-09-20T03:13:32.984Z,9.5
2022-09-20T03:14:33.578Z,9.7
2022-09-20T03:15:34.172Z,9.7
2022-09-20T03:16:34.858Z,9.6
2022-09-20T03:17:35.414Z,9.7
2022-09-20T03:18:36.008Z,9.6
2022-09-20T03:19:36.601Z,9.6
2022-09-20T03:20:37.196Z,9.7
2022-09-20T03:21:37.788Z,9.7
2022-09-20T03:22:38.383Z,9.7
2022-09-20T03:23:38.995Z,9.6
2022-09-20T03:24:39.589Z,9.7
2022-09-20T03:25:40.181Z,9.7
2022-09-20T03:26:40.776Z,9.6
2022-09-20T03:27:41.368Z,9.7
2022-09-20T03:28:41.961Z,9.7
2022-09-20T03:29:42.552Z,9.7
2022-09-20T03:30:43.157Z,9.7
2022-09-20T03:31:43.794Z,9.7
2022-09-20T03:32:44.344Z,9.7
2022-09-20T03:33:44.938Z,9.7
2022-09-20T03:34:45.532Z,9.8
2022-09-20T03:35:46.124Z,9.8
2022-09-20T03:36:46.718Z,9.7
2022-09-20T03:37:47.310Z,9.7
2022-09-20T03:38:47.905Z,9.7
2022-09-20T03:39:48.497Z,9.7
2022-09-20T03:40:49.152Z,9.8
2022-09-20T03:41:49.725Z,9.7
2022-09-20T03:42:50.317Z,9.8
2022-09-20T03:43:50.971Z,9.8
2022-09-20T03:44:51.502Z,9.7
2022-09-20T03:45:52.135Z,9.8
2022-09-20T03:46:52.688Z,9.7
2022-09-20T03:47:53.281Z,9.7
2022-09-20T03:48:53.877Z,9.7
2022-09-20T03:49:54.470Z,9.8
2022-09-20T03:50:55.064Z,9.7
2022-09-20T03:51:55.659Z,9.7
2022-09-20T03:52:56.253Z,9.6
2022-09-20T03:53:56.845Z,9.8
2022-09-20T03:54:57.446Z,9.8
2022-09-20T03:55:58.038Z,9.8
2022-09-20T03:56:58.650Z,9.7
2022-09-20T03:57:59.243Z,9.8
2022-09-20T03:58:59.837Z,9.7
2022-09-20T04:00:00.429Z,9.8
2022-09-20T04:01:01.080Z,9.7
2022-09-20T04:02:01.691Z,9.8
2022-09-20T04:03:02.258Z,9.7
2022-09-20T04:04:02.850Z,9.7
2022-09-20T04:05:03.443Z,9.7
2022-09-20T04:06:04.036Z,9.8
2022-09-20T04:07:04.630Z,9.7
2022-09-20T04:08:05.224Z,9.7
2022-09-20T04:09:05.817Z,9.7
2022-09-20T04:10:06.410Z,9.7
2022-09-20T04:11:07.013Z,9.7
2022-09-20T04:12:07.604Z,9.6
2022-09-20T04:13:08.247Z,9.6
2022-09-20T04:14:11.417Z,9.5
2022-09-20T04:15:10.428Z,9.5
2022-09-20T04:16:11.066Z,9.5
2022-09-20T04:17:11.611Z,9.4
2022-09-20T04:18:12.203Z,9.4
2022-09-20T04:19:12.816Z,9.4
2022-09-20T04:20:13.412Z,9.2
2022-09-20T04:21:14.003Z,9.4
2022-09-20T04:22:14.596Z,9.4
2022-09-20T04:23:15.188Z,9.3
2022-09-20T04:24:15.782Z,9.3
2022-09-20T04:25:16.376Z,9.2
2022-09-20T04:26:16.969Z,9.2
2022-09-20T04:27:17.616Z,9.2
2022-09-20T04:28:18.205Z,9.2
2022-09-20T04:29:18.801Z,9.2
2022-09-20T04:30:19.408Z,9.1
2022-09-20T04:31:20.960Z,9.2
2022-09-20T04:32:21.591Z,9.2
2022-09-20T04:33:22.186Z,9.1
2022-09-20T04:34:22.778Z,9.0
2022-09-20T04:35:23.373Z,9.0
2022-09-20T04:36:23.962Z,9.0
2022-09-20T04:37:24.559Z,9.0
2022-09-20T04:38:25.151Z,8.9
2022-09-20T04:39:25.747Z,8.9
2022-09-20T04:40:26.403Z,8.8
2022-09-20T04:41:26.963Z,8.9
2022-09-20T04:42:27.557Z,8.8
2022-09-20T04:43:28.153Z,8.7
2022-09-20T04:44:28.746Z,8.8
2022-09-20T04:45:29.403Z,8.6
2022-09-20T04:46:29.949Z,8.7
2022-09-20T04:47:30.547Z,8.7
2022-09-20T04:48:31.143Z,8.7
2022-09-20T04:49:31.756Z,8.7
2022-09-20T04:50:32.348Z,8.7
2022-09-20T04:51:32.945Z,8.6
2022-09-20T04:52:33.536Z,8.6
2022-09-20T04:53:34.135Z,8.7
2022-09-20T04:54:34.726Z,8.7
2022-09-20T04:55:35.320Z,8.8
2022-09-20T04:56:35.914Z,8.8
2022-09-20T04:57:36.511Z,8.8
2022-09-20T04:58:37.125Z,8.8
2022-09-20T04:59:37.723Z,8.8
2022-09-20T05:00:38.337Z,8.8
2022-09-20T05:01:38.972Z,8.8
2022-09-20T05:02:39.588Z,8.8
2022-09-20T05:03:40.167Z,8.8
2022-09-20T05:04:40.762Z,8.8
2022-09-20T05:05:41.365Z,8.8
2022-09-20T05:06:41.957Z,8.7
2022-09-20T05:07:42.557Z,8.8
2022-09-20T05:08:43.156Z,8.7
2022-09-20T05:09:43.751Z,8.8
2022-09-20T05:10:44.347Z,8.8
2022-09-20T05:11:44.945Z,8.9
2022-09-20T05:12:45.543Z,8.8
2022-09-20T05:13:46.158Z,8.8
2022-09-20T05:14:46.755Z,8.8
2022-09-20T05:15:47.353Z,8.8
2022-09-20T05:16:48.001Z,8.8
2022-09-20T05:17:48.565Z,8.8
2022-09-20T05:18:49.161Z,8.8
2022-09-20T05:19:49.758Z,8.8
2022-09-20T05:20:50.356Z,8.8
2022-09-20T05:21:50.953Z,8.9
2022-09-20T05:22:51.573Z,9.0
2022-09-20T05:23:52.190Z,9.0
2022-09-20T05:24:52.790Z,9.0
2022-09-20T05:25:53.387Z,9.0
2022-09-20T05:26:53.983Z,8.9
2022-09-20T05:27:54.582Z,9.0
2022-09-20T05:28:55.181Z,8.9
2022-09-20T05:29:55.777Z,8.9
2022-09-20T05:30:56.385Z,8.9
2022-09-20T05:31:57.037Z,8.9
2022-09-20T05:32:57.584Z,9.0
2022-09-20T05:33:58.181Z,8.9
2022-09-20T05:34:58.778Z,8.9
2022-09-20T05:35:59.375Z,8.9
2022-09-20T05:36:59.975Z,8.9
2022-09-20T05:38:00.572Z,8.9
2022-09-20T05:39:03.415Z,8.9
2022-09-20T05:40:02.806Z,8.9
2022-09-20T05:41:03.368Z,8.9
2022-09-20T05:42:03.966Z,8.9
2022-09-20T05:43:04.566Z,8.9
2022-09-20T05:44:05.309Z,9.0
2022-09-20T05:45:05.947Z,9.0
2022-09-20T05:46:06.588Z,8.9
2022-09-20T05:47:07.152Z,8.9
2022-09-20T05:48:07.748Z,9.0
2022-09-20T05:49:08.366Z,9.0
2022-09-20T05:50:08.965Z,9.0
2022-09-20T05:51:09.566Z,8.9
2022-09-20T05:52:10.165Z,9.0
2022-09-20T05:53:10.766Z,9.0
2022-09-20T05:54:11.364Z,9.1
2022-09-20T05:55:11.965Z,9.1
2022-09-20T05:56:12.564Z,9.1
2022-09-20T05:57:13.166Z,9.2
2022-09-20T05:58:13.762Z,9.2
2022-09-20T05:59:14.534Z,9.2
2022-09-20T06:00:15.170Z,9.3
2022-09-20T06:01:15.809Z,9.4
2022-09-20T06:02:16.392Z,9.3
2022-09-20T06:03:16.964Z,9.2
2022-09-20T06:04:17.563Z,9.4
2022-09-20T06:05:18.164Z,9.4
2022-09-20T06:06:18.762Z,9.6
2022-09-20T06:07:19.363Z,9.9
2022-09-20T06:08:19.962Z,10.7
2022-09-20T06:09:20.563Z,11.1
2022-09-20T06:10:21.158Z,11.0
2022-09-20T06:11:21.758Z,11.9
2022-09-20T06:12:22.356Z,12.7
2022-09-20T06:13:22.956Z,13.1
2022-09-20T06:14:23.552Z,12.8
2022-09-20T06:15:24.152Z,12.2
2022-09-20T06:16:24.807Z,11.5
2022-09-20T06:17:25.364Z,11.1
2022-09-20T06:18:25.965Z,10.9
2022-09-20T06:19:26.561Z,10.8
2022-09-20T06:20:27.222Z,11.1
2022-09-20T06:21:27.776Z,11.1
2022-09-20T06:22:28.372Z,10.9
2022-09-20T06:23:28.974Z,11.0
2022-09-20T06:24:29.573Z,11.0
2022-09-20T06:25:30.173Z,10.9
2022-09-20T06:26:30.772Z,10.9
2022-09-20T06:27:31.391Z,10.8
2022-09-20T06:28:31.988Z,10.7
2022-09-20T06:29:32.586Z,10.6
2022-09-20T06:30:33.263Z,10.6
2022-09-20T06:31:33.820Z,10.7
2022-09-20T06:32:34.419Z,10.7
2022-09-20T06:33:35.017Z,10.5
2022-09-20T06:34:35.616Z,10.6
2022-09-20T06:35:36.217Z,10.6
2022-09-20T06:36:36.817Z,10.6
2022-09-20T06:37:37.415Z,10.6
2022-09-20T06:38:38.014Z,10.5
2022-09-20T06:39:38.615Z,10.6
2022-09-20T06:40:39.237Z,10.6
2022-09-20T06:41:39.809Z,10.6
2022-09-20T06:42:40.406Z,10.7
2022-09-20T06:43:41.008Z,10.6
2022-09-20T06:44:41.607Z,10.7
2022-09-20T06:45:42.243Z,10.6
2022-09-20T06:46:42.805Z,10.8
2022-09-20T06:47:43.413Z,10.8
2022-09-20T06:48:44.008Z,10.8
2022-09-20T06:49:44.619Z,10.8
2022-09-20T06:50:45.209Z,10.9
2022-09-20T06:51:45.812Z,10.9
2022-09-20T06:52:46.410Z,10.9
2022-09-20T06:53:47.013Z,10.9
2022-09-20T06:54:47.618Z,10.9
2022-09-20T06:55:48.212Z,10.9
2022-09-20T06:56:48.815Z,10.9
2022-09-20T06:57:49.412Z,10.9
2022-09-20T06:58:50.010Z,10.9
2022-09-20T06:59:50.610Z,10.9
2022-09-20T07:00:51.321Z,10.9
2022-09-20T07:01:51.985Z,10.9
2022-09-20T07:02:52.545Z,10.9
2022-09-20T07:03:53.142Z,10.9
2022-09-20T07:04:53.740Z,10.9
2022-09-20T07:05:54.341Z,10.8
2022-09-20T07:06:54.959Z,10.9
2022-09-20T07:07:55.559Z,10.8
2022-09-20T07:08:56.157Z,11.0
2022-09-20T07:09:56.757Z,10.9
2022-09-20T07:10:57.375Z,11.0
2022-09-20T07:11:57.975Z,10.9
2022-09-20T07:12:58.573Z,10.9
2022-09-20T07:13:59.172Z,10.8
2022-09-20T07:14:59.774Z,10.9
2022-09-20T07:16:00.376Z,11.0
2022-09-20T07:17:00.976Z,10.9
2022-09-20T07:18:01.579Z,11.0
2022-09-20T07:19:02.180Z,11.0
2022-09-20T07:20:02.778Z,10.9
2022-09-20T07:21:03.378Z,11.0
2022-09-20T07:22:03.979Z,11.0
2022-09-20T07:23:04.579Z,11.0
2022-09-20T07:24:05.179Z,11.0
2022-09-20T07:25:05.781Z,10.9
2022-09-20T07:26:06.402Z,10.9
2022-09-20T07:27:07.002Z,11.1
2022-09-20T07:28:07.605Z,11.1
2022-09-20T07:29:08.300Z,11.0
2022-09-20T07:30:08.856Z,10.9
2022-09-20T07:31:09.455Z,10.9
2022-09-20T07:32:10.056Z,11.0
2022-09-20T07:33:10.677Z,11.1
2022-09-20T07:34:11.278Z,11.1
2022-09-20T07:35:11.877Z,11.1
2022-09-20T07:36:12.483Z,11.2
2022-09-20T07:37:13.078Z,11.2
2022-09-20T07:38:13.678Z,11.3
2022-09-20T07:39:14.278Z,11.3
2022-09-20T07:40:14.971Z,11.3
2022-09-20T07:41:15.531Z,11.3
2022-09-20T07:42:16.131Z,11.5
2022-09-20T07:43:16.729Z,11.5
2022-09-20T07:44:17.330Z,11.4
2022-09-20T07:45:17.951Z,11.5
2022-09-20T07:46:18.571Z,11.6
2022-09-20T07:47:19.168Z,11.7
2022-09-20T07:48:19.770Z,11.6
2022-09-20T07:49:20.393Z,11.6
2022-09-20T07:50:20.991Z,11.6
2022-09-20T07:51:21.592Z,11.6
2022-09-20T07:52:22.193Z,11.6
2022-09-20T07:53:22.796Z,11.6
2022-09-20T07:54:23.394Z,11.7
2022-09-20T07:55:23.992Z,11.8
2022-09-20T07:56:24.592Z,11.9
2022-09-20T07:57:25.189Z,11.8
2022-09-20T07:58:25.791Z,11.8
2022-09-20T07:59:26.387Z,11.8
2022-09-20T08:00:26.992Z,11.7
2022-09-20T08:01:27.665Z,11.6
2022-09-20T08:02:28.308Z,11.8
2022-09-20T08:03:28.884Z,11.7
2022-09-20T08:04:29.482Z,11.7
2022-09-20T08:05:30.080Z,11.8
2022-09-20T08:06:30.700Z,11.7
2022-09-20T08:07:31.298Z,11.7
2022-09-20T08:08:31.897Z,11.7
2022-09-20T08:09:32.494Z,11.7
2022-09-20T08:10:33.093Z,11.7
2022-09-20T08:11:33.691Z,11.8
2022-09-20T08:14:37.475Z,11.8
2022-09-20T08:15:38.075Z,11.9
2022-09-20T08:16:38.709Z,12.0
2022-09-20T08:17:39.277Z,12.3
2022-09-20T08:18:39.879Z,12.3
2022-09-20T08:19:40.478Z,12.3
2022-09-20T08:20:41.078Z,12.2
2022-09-20T08:21:41.677Z,12.2
2022-09-20T08:22:42.276Z,12.2
2022-09-20T08:23:42.895Z,12.2
2022-09-20T08:24:43.495Z,12.2
2022-09-20T08:25:44.104Z,12.2
2022-09-20T08:26:44.723Z,12.2
2022-09-20T08:27:45.321Z,12.1
2022-09-20T08:28:45.922Z,12.0
2022-09-20T08:29:46.521Z,12.0
2022-09-20T08:30:47.125Z,11.9
2022-09-20T08:31:47.771Z,12.0
2022-09-20T08:32:48.346Z,12.0
2022-09-20T08:33:48.945Z,12.1
2022-09-20T08:34:49.614Z,12.3
2022-09-20T08:35:50.168Z,12.5
2022-09-20T08:36:50.766Z,12.6
2022-09-20T08:37:51.559Z,12.8
2022-09-20T08:39:57.959Z,13.1
2022-09-20T08:40:55.290Z,13.0
2022-09-20T08:41:55.891Z,13.1
2022-09-20T08:42:56.493Z,13.1
2022-09-20T08:43:57.093Z,13.0
2022-09-20T08:44:58.112Z,13.2
2022-09-20T08:45:58.344Z,13.4
2022-09-20T08:46:58.919Z,13.6
2022-09-20T08:47:59.542Z,13.7
2022-09-20T08:49:00.164Z,13.5
2022-09-20T08:50:00.932Z,13.5
2022-09-20T08:51:05.663Z,13.5
2022-09-20T08:52:03.591Z,13.3
2022-09-20T08:53:04.201Z,13.5
2022-09-20T08:54:04.823Z,13.5
2022-09-20T08:55:07.484Z,13.8
2022-09-20T08:56:07.015Z,13.7
2022-09-20T08:57:07.618Z,13.8
2022-09-20T08:58:09.104Z,13.9
2022-09-20T08:59:09.700Z,14.0
2022-09-20T09:00:10.306Z,14.0
2022-09-20T09:01:10.941Z,13.7
2022-09-20T09:02:11.551Z,13.8
2022-09-20T09:03:12.135Z,13.8
2022-09-20T09:04:12.724Z,13.9
2022-09-20T09:05:13.323Z,13.8
2022-09-20T09:06:18.242Z,13.5
2022-09-20T09:07:15.518Z,13.5
2022-09-20T09:08:16.147Z,13.3
2022-09-20T09:09:16.740Z,13.2
2022-09-20T09:10:17.598Z,13.1
2022-09-20T09:11:17.959Z,13.1
2022-09-20T09:12:18.557Z,13.3
2022-09-20T09:13:19.178Z,13.5
2022-09-20T09:14:19.803Z,13.6
2022-09-20T09:15:20.423Z,13.5
2022-09-20T09:16:23.832Z,13.5
2022-09-20T09:17:27.524Z,13.7
2022-09-20T09:18:24.136Z,13.6
2022-09-20T09:19:24.757Z,13.7
2022-09-20T09:20:25.382Z,13.8
2022-09-20T09:21:25.982Z,13.7
2022-09-20T09:22:26.586Z,13.7
2022-09-20T09:23:27.183Z,13.5
2022-09-20T09:24:27.784Z,13.5
2022-09-20T09:25:28.384Z,13.4
2022-09-20T09:26:28.984Z,13.5
2022-09-20T09:27:29.587Z,13.7
2022-09-20T09:28:30.188Z,13.7
2022-09-20T09:29:34.776Z,13.8
2022-09-20T09:30:32.380Z,13.7
2022-09-20T09:31:33.039Z,13.8
2022-09-20T09:32:33.608Z,13.7
2022-09-20T09:33:34.212Z,13.6
2022-09-20T09:34:34.831Z,13.7
2022-09-20T09:35:35.431Z,13.8
2022-09-20T09:36:36.032Z,13.8
2022-09-20T09:37:36.693Z,13.9
2022-09-20T09:38:37.257Z,14.0
2022-09-20T09:39:37.875Z,14.4
2022-09-20T09:40:38.507Z,14.5
2022-09-20T09:41:39.102Z,14.5
2022-09-20T09:42:39.730Z,14.5
2022-09-20T09:43:40.322Z,14.5
2022-09-20T09:44:40.921Z,14.4
2022-09-20T09:45:41.549Z,14.4
2022-09-20T09:46:42.123Z,14.3
2022-09-20T09:47:42.725Z,14.1
2022-09-20T09:48:43.325Z,14.0
2022-09-20T09:49:43.927Z,13.9
2022-09-20T09:50:44.526Z,13.7
2022-09-20T09:51:45.127Z,13.6
2022-09-20T09:52:45.754Z,13.6
2022-09-20T09:53:46.377Z,13.7
2022-09-20T09:54:46.976Z,13.7
2022-09-20T09:55:47.577Z,13.7
2022-09-20T09:56:48.181Z,13.6
2022-09-20T09:57:48.781Z,13.6
2022-09-20T09:58:49.383Z,13.6
2022-09-20T09:59:50.001Z,13.7
2022-09-20T10:00:50.627Z,13.6
2022-09-20T10:01:51.223Z,13.5
2022-09-20T10:02:51.825Z,13.5
2022-09-20T10:03:52.449Z,13.3
2022-09-20T10:04:53.049Z,13.3
2022-09-20T10:05:53.647Z,13.1
2022-09-20T10:06:54.249Z,13.0
2022-09-20T10:07:54.847Z,13.1
2022-09-20T10:08:55.468Z,13.0
2022-09-20T10:09:56.089Z,13.0
2022-09-20T10:10:56.691Z,13.1
2022-09-20T10:11:57.287Z,13.1
2022-09-20T10:12:57.907Z,13.1
2022-09-20T10:13:58.510Z,13.1
2022-09-20T10:14:59.106Z,13.0
2022-09-20T10:15:59.707Z,12.9
2022-09-20T10:17:00.310Z,13.0
2022-09-20T10:18:00.909Z,12.9
2022-09-20T10:19:01.513Z,12.9
2022-09-20T10:20:02.112Z,13.0
2022-09-20T10:21:02.712Z,13.0
2022-09-20T10:22:03.312Z,13.1
2022-09-20T10:24:05.520Z,13.2
2022-09-20T10:25:06.107Z,13.2
2022-09-20T10:26:06.706Z,13.3
2022-09-20T10:27:07.327Z,13.4
2022-09-20T10:28:07.926Z,13.5
2022-09-20T10:29:08.529Z,13.5
2022-09-20T10:30:09.154Z,13.5
2022-09-20T10:31:09.822Z,13.7
2022-09-20T10:32:13.439Z,13.6
2022-09-20T10:33:11.995Z,13.8
2022-09-20T10:34:12.598Z,14.0
2022-09-20T10:35:13.221Z,14.0
2022-09-20T10:36:13.815Z,14.1
2022-09-20T10:37:14.416Z,14.1
2022-09-20T10:38:15.016Z,14.0
2022-09-20T10:39:15.617Z,14.1
2022-09-20T10:40:16.329Z,14.2
2022-09-20T10:41:16.903Z,14.1
2022-09-20T10:42:17.525Z,14.1
2022-09-20T10:43:18.145Z,14.1
2022-09-20T10:44:18.746Z,14.2
2022-09-20T10:45:44.005Z,14.2
2022-09-20T10:46:31.295Z,14.2
2022-09-20T10:47:22.603Z,14.1
2022-09-20T10:48:23.171Z,14.2
2022-09-20T10:49:23.799Z,14.2
2022-09-20T10:50:24.375Z,14.2
2022-09-20T10:51:24.980Z,14.3
2022-09-20T10:52:25.581Z,14.3
2022-09-20T10:53:26.184Z,14.6
2022-09-20T10:54:26.794Z,14.7
2022-09-20T10:55:27.385Z,14.7
2022-09-20T10:56:28.009Z,14.9
2022-09-20T10:57:28.612Z,15.1
2022-09-20T10:58:29.215Z,15.1
2022-09-20T10:59:29.837Z,15.0
2022-09-20T11:00:30.437Z,15.1
2022-09-20T11:01:31.089Z,15.1
2022-09-20T11:02:31.716Z,15.1
2022-09-20T11:03:32.307Z,15.2
2022-09-20T11:04:32.911Z,15.2
2022-09-20T11:05:33.512Z,15.2
2022-09-20T11:06:34.131Z,15.1
2022-09-20T11:07:34.732Z,15.2
2022-09-20T11:08:35.384Z,15.1
2022-09-20T11:09:35.976Z,15.2
2022-09-20T11:10:36.573Z,15.4
2022-09-20T11:11:37.173Z,15.4
2022-09-20T11:12:37.777Z,15.6
2022-09-20T11:13:38.382Z,15.6
2022-09-20T11:14:38.981Z,15.7
2022-09-20T11:15:39.603Z,15.7
2022-09-20T11:16:40.266Z,15.6
2022-09-20T11:17:40.819Z,15.0
2022-09-20T11:18:41.418Z,15.0
2022-09-20T11:19:42.021Z,14.9
2022-09-20T11:20:42.619Z,15.1
2022-09-20T11:21:43.222Z,15.3
2022-09-20T11:22:43.821Z,15.4
2022-09-20T11:23:44.424Z,15.2
2022-09-20T11:24:45.026Z,15.0
2022-09-20T11:25:45.627Z,15.0
2022-09-20T11:26:46.228Z,14.7
2022-09-20T11:27:46.829Z,14.7
2022-09-20T11:28:47.453Z,14.7
2022-09-20T11:29:48.051Z,14.7
2022-09-20T11:30:48.652Z,14.7
2022-09-20T11:31:49.290Z,14.7
2022-09-20T11:32:49.857Z,14.4
2022-09-20T11:33:50.478Z,14.3
2022-09-20T11:34:51.076Z,14.3
2022-09-20T11:35:51.691Z,14.4
2022-09-20T11:36:52.317Z,14.3
2022-09-20T11:37:52.912Z,14.2
2022-09-20T11:38:53.682Z,13.9
2022-09-20T11:39:54.240Z,13.9
2022-09-20T11:40:54.852Z,14.0
2022-09-20T11:41:55.496Z,14.3
2022-09-20T11:42:56.118Z,14.4
2022-09-20T11:43:56.725Z,14.5
2022-09-20T11:44:57.322Z,14.7
2022-09-20T11:45:57.997Z,14.7
2022-09-20T11:46:58.586Z,14.8
2022-09-20T11:47:59.188Z,14.9
2022-09-20T11:48:59.788Z,14.9
2022-09-20T11:50:00.389Z,14.8
2022-09-20T11:51:00.988Z,14.6
2022-09-20T11:52:01.591Z,14.6
2022-09-20T11:53:02.192Z,14.8
2022-09-20T11:54:02.794Z,14.9
2022-09-20T11:55:03.395Z,15.0
2022-09-20T11:56:04.002Z,15.3
2022-09-20T11:57:04.620Z,15.4
2022-09-20T11:58:05.227Z,15.3
2022-09-20T11:59:05.828Z,15.2
2022-09-20T12:00:06.428Z,15.0
2022-09-20T12:01:07.026Z,14.9
2022-09-20T12:02:07.682Z,15.0
2022-09-20T12:03:08.502Z,15.2
2022-09-20T12:04:31.272Z,15.3
2022-09-20T12:05:10.719Z,15.2
2022-09-20T12:06:11.319Z,15.0
2022-09-20T12:07:16.981Z,14.8
2022-09-20T12:08:13.517Z,14.7
2022-09-20T12:09:14.115Z,14.7
2022-09-20T12:10:14.716Z,14.5
2022-09-20T12:11:15.338Z,14.3
2022-09-20T12:12:15.939Z,14.4
2022-09-20T12:13:16.551Z,14.6
2022-09-20T12:14:17.145Z,14.7
2022-09-20T12:15:17.747Z,14.9
2022-09-20T12:16:18.380Z,15.1
2022-09-20T12:17:18.951Z,15.3
2022-09-20T12:18:19.553Z,15.5
2022-09-20T12:19:20.156Z,15.6
2022-09-20T12:20:20.762Z,15.7
2022-09-20T12:21:21.366Z,15.5
2022-09-20T12:22:21.966Z,15.6
2022-09-20T12:23:22.567Z,15.7
2022-09-20T12:24:23.172Z,16.1
2022-09-20T12:25:23.774Z,16.2
2022-09-20T12:26:24.378Z,16.3
2022-09-20T12:27:24.980Z,16.1
2022-09-20T12:28:25.602Z,16.1
2022-09-20T12:29:26.202Z,16.3
2022-09-20T12:30:26.806Z,16.2
2022-09-20T12:31:27.423Z,16.3
2022-09-20T12:32:28.013Z,16.3
2022-09-20T12:33:28.614Z,16.3
2022-09-20T12:34:29.216Z,16.4
2022-09-20T12:35:29.814Z,16.3
2022-09-20T12:36:30.418Z,16.3
2022-09-20T12:37:31.020Z,16.3
2022-09-20T12:38:31.625Z,16.6
2022-09-20T12:39:32.226Z,16.8
2022-09-20T12:40:32.848Z,16.9
2022-09-20T12:41:33.434Z,17.0
2022-09-20T12:42:34.039Z,16.9
2022-09-20T12:43:34.640Z,16.8
2022-09-20T12:44:35.265Z,16.7
2022-09-20T12:45:35.884Z,16.4
2022-09-20T12:46:36.466Z,16.3
2022-09-20T12:47:37.209Z,16.5
2022-09-20T12:48:37.810Z,16.5
2022-09-20T12:49:38.408Z,16.1
2022-09-20T12:50:39.029Z,15.8
2022-09-20T12:51:39.631Z,15.6
2022-09-20T12:52:40.234Z,15.3
2022-09-20T12:53:40.833Z,15.2
2022-09-20T12:54:41.435Z,15.2
2022-09-20T12:55:42.034Z,15.3
2022-09-20T12:56:42.636Z,15.2
2022-09-20T12:57:43.234Z,15.1
2022-09-20T12:58:43.849Z,14.9
2022-09-20T12:59:44.497Z,14.9
2022-09-20T13:00:45.143Z,14.8
2022-09-20T13:01:45.762Z,14.8
2022-09-20T13:02:46.314Z,15.0
2022-09-20T13:03:46.912Z,15.0
2022-09-20T13:04:47.514Z,15.0
2022-09-20T13:05:48.122Z,15.0
2022-09-20T13:06:48.723Z,15.0
2022-09-20T13:07:49.342Z,15.0
2022-09-20T13:08:49.961Z,15.0
2022-09-20T13:09:50.608Z,15.0
2022-09-20T13:10:51.207Z,15.0
2022-09-20T13:11:51.841Z,15.0
2022-09-20T13:12:54.514Z,14.9
2022-09-20T13:13:54.032Z,14.9
2022-09-20T13:14:54.632Z,15.1
2022-09-20T13:15:55.230Z,15.2
2022-09-20T13:16:55.831Z,15.4
2022-09-20T13:17:56.435Z,15.4
2022-09-20T13:18:57.035Z,15.3
2022-09-20T13:19:57.661Z,15.4
2022-09-20T13:20:58.249Z,15.4
2022-09-20T13:21:58.850Z,15.3
2022-09-20T13:23:00.519Z,15.3
2022-09-20T13:24:01.045Z,15.4
2022-09-20T13:25:01.647Z,15.5
2022-09-20T13:26:02.250Z,15.5
2022-09-20T13:27:02.851Z,15.6
2022-09-20T13:28:03.465Z,15.8
2022-09-20T13:29:04.073Z,15.7
2022-09-20T13:30:04.747Z,15.6
2022-09-20T13:31:05.447Z,15.7
2022-09-20T13:32:06.005Z,15.7
2022-09-20T13:33:06.609Z,15.7
2022-09-20T13:34:07.214Z,15.7
2022-09-20T13:35:07.881Z,15.7
2022-09-20T13:36:08.425Z,15.7
2022-09-20T13:37:09.031Z,15.8
2022-09-20T13:38:09.632Z,15.9
2022-09-20T13:39:10.234Z,15.8
2022-09-20T13:40:10.859Z,15.7
2022-09-20T13:41:11.438Z,15.7
2022-09-20T13:42:12.036Z,15.6
2022-09-20T13:43:23.544Z,15.4